Bookmark and Share
Track history (hours):
 

Kota Ria

Last reported at 2014-Apr-24 08:31 UTC. Time now 2014-Apr-24 09:30 UTC.
Position N 01°17' E 103°46'.

Length 146 m; draft 5.5 m.

Type: Cargo ship. MMSI: 565050000.

NotesDate/timePositionNaut miles runAvg speedWind from/ knotsBaromVisibWave heightAir tempDewpointWater temp
2014-Apr-24 08:31N 01°17' E 103°46'0 0.0
2014-Apr-24 07:31N 01°17' E 103°46'0 0.0
2014-Apr-24 06:31N 01°17' E 103°46'0 0.0
2014-Apr-24 05:28N 01°17' E 103°46'0 0.0
2014-Apr-24 04:31N 01°17' E 103°46'0 0.0
2014-Apr-24 03:28N 01°17' E 103°46'0 0.0
2014-Apr-24 02:31N 01°17' E 103°46'0 0.0
2014-Apr-24 01:28N 01°17' E 103°46'0 0.0
2014-Apr-24 00:31N 01°17' E 103°46'0 0.0
2014-Apr-23 23:31N 01°17' E 103°46'0 0.0
2014-Apr-23 22:31N 01°17' E 103°46'1 1.1
2014-Apr-23 21:18N 01°16' E 103°46'0 0.0
2014-Apr-23 20:30N 01°16' E 103°46'0 0.0
2014-Apr-23 19:33N 01°16' E 103°46'0 0.0
2014-Apr-23 18:34N 01°16' E 103°46'0 0.0
2014-Apr-23 17:34N 01°16' E 103°46'0 0.0
2014-Apr-23 16:33N 01°16' E 103°46'2 2.1
2014-Apr-23 15:33N 01°14' E 103°47'2 1.7
2014-Apr-23 14:32N 01°14' E 103°49'0 0.0
2014-Apr-23 13:32N 01°14' E 103°49'0 0.0
2014-Apr-23 12:17N 01°14' E 103°49'0 0.0
2014-Apr-23 11:32N 01°14' E 103°49'0 0.2
2014-Apr-23 10:32N 01°14' E 103°49'0 0.0
2014-Apr-23 09:32N 01°14' E 103°49'0 0.1
2014-Apr-23 08:23N 01°14' E 103°49'0 0.0
2014-Apr-23 07:23N 01°14' E 103°49'0 0.1
2014-Apr-23 06:29N 01°14' E 103°49'0 0.0
2014-Apr-23 05:29N 01°14' E 103°49'0 0.0
2014-Apr-23 04:32N 01°14' E 103°49'0 0.1
2014-Apr-23 03:34N 01°14' E 103°49'1 0.9
2014-Apr-23 02:33N 01°13' E 103°49'7 7.3
2014-Apr-23 01:33N 01°13' E 103°42'6 5.6
2014-Apr-23 00:33N 01°13' E 103°36'5 4.5
2014-Apr-22 23:33N 01°11' E 103°32'3 3.0
2014-Apr-22 22:32N 01°10' E 103°29'8 7.5
2014-Apr-22 21:30N 01°14' E 103°22'  

Dump ship's entire track history

sailing weather and tide predictions

Kota Ria — 9VJK4 — position and weather